Time;durP1;ratioP1;P1;durP2;ratioP2;P2;SDS_P1;SDS_P2;PMS_P1;PMS_P2;Temp;Humidity;BMP_temperature;BMP_pressure;BME280_temperature;BME280_humidity;BME280_pressure;Samples;Min_cycle;Max_cycle;Signal;HPM_P1;HPM_P2
2023/04/04 00:01:17;;;;;;;0.60;0.60;;;;;;;2.70;49.18;102880.91;4992961;28;97205;-50
2023/04/04 00:03:43;;;;;;;1.90;0.67;;;;;;;2.69;49.26;102879.34;4991854;28;97556;-49
2023/04/04 00:06:08;;;;;;;1.83;0.57;;;;;;;2.72;49.22;102878.59;4994521;28;97256;-50
2023/04/04 00:08:33;;;;;;;1.47;0.70;;;;;;;2.73;49.05;102874.69;4992412;28;96999;-50
2023/04/04 00:10:59;;;;;;;1.07;0.97;;;;;;;2.73;49.12;102865.78;4994785;28;104058;-48
2023/04/04 00:13:28;;;;;;;1.00;0.70;;;;;;;2.70;48.80;102866.53;4999215;28;96705;-50
2023/04/04 00:15:53;;;;;;;1.27;0.70;;;;;;;2.70;49.05;102874.69;4993726;28;96784;-51
2023/04/04 00:18:18;;;;;;;1.33;0.77;;;;;;;2.68;49.05;102866.94;4995252;28;97517;-49
2023/04/04 00:20:44;;;;;;;0.80;0.80;;;;;;;2.64;49.09;102868.84;4997473;28;97420;-48
2023/04/04 00:23:09;;;;;;;1.13;1.03;;;;;;;2.64;49.13;102871.56;4996036;28;97132;-49
2023/04/04 00:25:38;;;;;;;2.20;0.90;;;;;;;2.62;49.09;102868.44;4995407;28;97334;-50
2023/04/04 00:28:03;;;;;;;1.77;0.70;;;;;;;2.64;49.21;102865.34;4992363;28;97724;-49
2023/04/04 00:30:30;;;;;;;1.77;0.93;;;;;;;2.64;49.12;102874.28;4994205;28;97236;-49
2023/04/04 00:32:56;;;;;;;1.67;0.80;;;;;;;2.63;49.43;102875.44;4996710;28;97638;-50
2023/04/04 00:35:21;;;;;;;0.50;0.50;;;;;;;2.66;49.29;102863.03;4999170;28;97450;-49
2023/04/04 00:37:46;;;;;;;1.73;0.70;;;;;;;2.64;48.98;102871.56;4997822;28;102548;-49
2023/04/04 00:40:12;;;;;;;1.23;0.80;;;;;;;2.63;49.04;102870.00;4998105;28;97196;-49
2023/04/04 00:42:38;;;;;;;1.10;0.70;;;;;;;2.62;48.82;102875.84;4996859;28;97182;-48
2023/04/04 00:45:07;;;;;;;1.67;0.90;;;;;;;2.58;49.01;102867.66;4998244;28;97207;-50
2023/04/04 00:47:33;;;;;;;1.57;0.73;;;;;;;2.55;48.88;102862.22;4996489;28;97126;-50
2023/04/04 00:49:59;;;;;;;1.60;0.53;;;;;;;2.48;49.01;102854.81;4997417;28;97146;-49
2023/04/04 00:52:25;;;;;;;0.60;0.60;;;;;;;2.43;49.00;102863.31;4997995;28;97185;-50
2023/04/04 00:54:51;;;;;;;1.13;0.70;;;;;;;2.41;49.21;102862.16;4996199;28;97378;-50
2023/04/04 00:57:18;;;;;;;1.47;0.90;;;;;;;2.39;49.23;102859.81;4998390;28;97430;-50
2023/04/04 00:59:43;;;;;;;1.10;0.87;;;;;;;2.38;49.26;102858.25;4995537;28;97411;-49
2023/04/04 01:02:08;;;;;;;2.80;1.07;;;;;;;2.38;49.25;102855.53;4993291;28;96747;-50
2023/04/04 01:04:35;;;;;;;1.00;0.77;;;;;;;2.38;49.47;102855.53;4996269;28;97795;-48
2023/04/04 01:07:01;;;;;;;0.80;0.70;;;;;;;2.39;49.28;102854.38;4996709;28;97802;-49
2023/04/04 01:09:27;;;;;;;0.73;0.73;;;;;;;2.40;49.09;102866.81;4995684;28;96963;-49
2023/04/04 01:11:54;;;;;;;0.90;0.67;;;;;;;2.39;49.11;102859.03;4994421;28;97356;-49
2023/04/04 01:14:20;;;;;;;1.77;0.60;;;;;;;2.35;49.32;102848.16;4995718;28;97036;-49
2023/04/04 01:16:48;;;;;;;1.00;0.80;;;;;;;2.31;49.32;102852.81;4995737;28;97280;-49
2023/04/04 01:19:21;;;;;;;0.70;0.60;;;;;;;2.29;49.41;102857.84;4995773;28;97206;-49
2023/04/04 01:21:48;;;;;;;0.83;0.70;;;;;;;2.27;49.17;102855.50;4995771;28;97201;-49
2023/04/04 01:24:15;;;;;;;2.00;1.00;;;;;;;2.27;49.32;102847.34;4999785;28;102863;-49
2023/04/04 01:26:40;;;;;;;0.90;0.80;;;;;;;2.28;49.28;102851.63;4995125;28;97324;-50
2023/04/04 01:29:06;;;;;;;2.73;0.93;;;;;;;2.27;49.58;102844.63;4995718;28;97295;-50
2023/04/04 01:31:35;;;;;;;2.37;1.27;;;;;;;2.29;49.25;102841.56;4996218;28;97173;-49
2023/04/04 01:34:15;;;;;;;0.70;0.57;;;;;;;2.29;49.67;102836.13;4995232;28;97411;-51
2023/04/04 01:36:52;;;;;;;2.43;1.00;;;;;;;2.28;49.69;102837.28;5010946;28;97272;-48
2023/04/04 01:39:48;;;;;;;1.43;0.80;;;;;;;2.26;49.56;102834.94;4995116;28;97143;-49
2023/04/04 01:42:15;;;;;;;0.70;0.70;;;;;;;2.25;49.44;102838.03;4994872;28;96674;-49
2023/04/04 01:44:41;;;;;;;0.93;0.67;;;;;;;2.19;49.52;102840.34;4997122;28;96871;-49
2023/04/04 01:47:09;;;;;;;1.23;0.90;;;;;;;2.17;49.39;102831.78;4998048;28;97734;-49
2023/04/04 01:49:35;;;;;;;1.73;1.30;;;;;;;2.16;49.49;102835.66;4998328;28;97127;-51
2023/04/04 01:52:01;;;;;;;1.97;0.93;;;;;;;2.17;49.54;102833.72;4994069;28;97669;-49
2023/04/04 01:54:27;;;;;;;0.80;0.80;;;;;;;2.18;49.51;102835.28;4992440;28;97560;-49
2023/04/04 01:56:52;;;;;;;0.87;0.87;;;;;;;2.18;49.38;102838.00;4993689;28;97612;-50
2023/04/04 01:59:18;;;;;;;1.00;1.00;;;;;;;2.19;49.50;102839.56;4995702;28;96774;-49
2023/04/04 02:01:43;;;;;;;1.37;1.07;;;;;;;2.15;49.65;102838.75;4995672;28;97053;-50
2023/04/04 02:04:11;;;;;;;1.00;0.90;;;;;;;2.13;49.81;102836.44;4993283;28;97770;-49
2023/04/04 02:06:37;;;;;;;1.20;1.10;;;;;;;2.15;49.85;102827.91;4994418;28;97142;-49
2023/04/04 02:09:03;;;;;;;2.20;2.00;;;;;;;2.14;49.80;102831.78;4996561;28;97178;-48
2023/04/04 02:11:28;;;;;;;1.63;1.53;;;;;;;2.13;49.87;102822.06;4997125;28;96961;-49
2023/04/04 02:13:53;;;;;;;3.23;1.70;;;;;;;2.15;49.66;102827.91;4996732;28;97422;-49
2023/04/04 02:16:19;;;;;;;4.07;1.60;;;;;;;2.16;49.87;102829.47;4994223;28;97320;-49
2023/04/04 02:18:44;;;;;;;1.90;1.77;;;;;;;2.14;49.81;102820.94;4996509;28;97349;-50
2023/04/04 02:21:10;;;;;;;1.07;0.97;;;;;;;2.12;50.01;102823.22;4995658;28;97094;-49
2023/04/04 02:23:35;;;;;;;5.13;1.20;;;;;;;2.10;49.69;102826.31;4992143;28;97081;-49
2023/04/04 02:26:01;;;;;;;2.00;1.00;;;;;;;2.10;50.04;102825.53;4993349;28;97767;-48
2023/04/04 02:28:27;;;;;;;1.50;0.80;;;;;;;2.09;49.98;102819.34;4991439;28;100874;-48
2023/04/04 02:30:52;;;;;;;1.07;0.73;;;;;;;2.10;50.00;102818.19;4995331;28;97089;-50
2023/04/04 02:33:18;;;;;;;1.10;0.80;;;;;;;2.10;50.10;102815.47;4993997;28;98966;-48
2023/04/04 02:35:43;;;;;;;1.27;0.70;;;;;;;2.10;50.02;102812.75;4996555;28;100753;-49
2023/04/04 02:38:08;;;;;;;1.30;0.53;;;;;;;2.11;50.01;102817.03;4992728;28;96952;-50
2023/04/04 02:40:38;;;;;;;0.77;0.77;;;;;;;2.08;50.04;102806.94;4994790;28;97105;-49
2023/04/04 02:43:03;;;;;;;4.57;0.90;;;;;;;2.09;50.26;102805.00;4994329;28;97310;-50
2023/04/04 02:45:28;;;;;;;0.90;0.90;;;;;;;2.08;50.20;102808.84;4996053;28;96982;-49
2023/04/04 02:47:54;;;;;;;2.90;1.07;;;;;;;2.05;50.09;102802.25;4996607;28;98204;-50
2023/04/04 02:50:19;;;;;;;0.67;0.67;;;;;;;2.05;50.15;102791.38;4995257;28;97224;-49
2023/04/04 02:52:45;;;;;;;1.63;1.27;;;;;;;2.03;50.28;102792.94;4993909;28;97475;-49
2023/04/04 02:55:10;;;;;;;2.80;1.67;;;;;;;2.02;50.08;102791.38;4993741;28;97565;-49
2023/04/04 02:57:36;;;;;;;2.23;1.60;;;;;;;1.95;49.98;102783.19;4995568;28;97449;-49
2023/04/04 03:00:03;;;;;;;8.97;6.30;;;;;;;1.94;50.37;102795.22;4992895;28;97023;-49
2023/04/04 03:02:28;;;;;;;9.37;5.90;;;;;;;1.93;50.13;102785.53;4993973;28;97848;-49
2023/04/04 03:04:54;;;;;;;7.53;5.67;;;;;;;1.91;50.28;102780.47;4995889;28;97613;-49
2023/04/04 03:07:20;;;;;;;10.93;6.90;;;;;;;1.87;50.17;102787.03;4996872;28;97057;-50
2023/04/04 03:09:46;;;;;;;5.60;4.77;;;;;;;1.82;50.34;102790.09;4994322;28;97375;-49
2023/04/04 03:12:11;;;;;;;17.90;10.30;;;;;;;1.77;50.81;102787.78;4994610;28;97728;-48
2023/04/04 03:14:37;;;;;;;7.87;5.00;;;;;;;1.76;50.52;102780.78;4994085;28;110803;-50
2023/04/04 03:17:03;;;;;;;11.90;8.17;;;;;;;1.75;50.82;102790.84;4995860;28;97105;-49
2023/04/04 03:19:29;;;;;;;26.90;14.47;;;;;;;1.74;50.49;102777.66;4994219;28;97025;-49
2023/04/04 03:21:54;;;;;;;18.37;10.80;;;;;;;1.72;50.72;102774.56;4994352;28;97961;-49
2023/04/04 03:24:19;;;;;;;9.10;5.60;;;;;;;1.73;50.69;102778.81;4996619;28;97150;-49
2023/04/04 03:26:45;;;;;;;10.87;7.17;;;;;;;1.71;50.82;102781.91;4994019;28;97050;-49
2023/04/04 03:29:10;;;;;;;6.97;4.60;;;;;;;1.72;50.62;102782.69;4993341;28;100995;-49
2023/04/04 03:31:35;;;;;;;6.13;3.77;;;;;;;1.72;50.75;102780.78;4993878;28;97773;-50
2023/04/04 03:34:01;;;;;;;9.50;5.23;;;;;;;1.74;50.98;102777.66;4993314;28;97363;-51
2023/04/04 03:36:26;;;;;;;5.47;3.47;;;;;;;1.76;50.69;102775.34;4993585;28;97036;-49
2023/04/04 03:38:52;;;;;;;4.70;3.07;;;;;;;1.77;50.67;102776.91;4991756;28;97476;-51
2023/04/04 03:41:17;;;;;;;12.30;5.50;;;;;;;1.74;50.81;102767.59;4992082;28;97830;-48
2023/04/04 03:43:43;;;;;;;5.27;3.10;;;;;;;1.71;50.88;102770.28;4993812;28;97926;-49
2023/04/04 03:46:09;;;;;;;12.93;6.20;;;;;;;1.67;50.74;102762.13;5000032;28;96988;-49
2023/04/04 03:48:34;;;;;;;29.13;13.33;;;;;;;1.68;50.89;102768.34;4995349;28;97336;-50
2023/04/04 03:51:02;;;;;;;17.83;10.20;;;;;;;1.70;50.90;102771.44;4995292;28;97576;-49
2023/04/04 03:53:28;;;;;;;13.90;7.90;;;;;;;1.70;50.92;102776.88;4994283;28;97219;-49
2023/04/04 03:55:55;;;;;;;8.23;4.27;;;;;;;1.71;50.81;102767.56;4991892;28;97220;-50
2023/04/04 03:58:21;;;;;;;4.20;2.60;;;;;;;1.72;50.94;102767.19;4995848;28;98802;-49
2023/04/04 04:00:47;;;;;;;3.83;2.07;;;;;;;1.73;50.92;102767.97;4995491;28;97459;-50
2023/04/04 04:03:13;;;;;;;2.20;1.77;;;;;;;1.72;50.80;102772.63;4994376;28;97176;-50
2023/04/04 04:05:38;;;;;;;3.73;1.83;;;;;;;1.71;50.69;102771.06;4996404;28;97448;-48
2023/04/04 04:08:04;;;;;;;1.30;1.20;;;;;;;1.70;50.93;102766.81;4998180;28;97143;-49
2023/04/04 04:10:29;;;;;;;1.83;1.13;;;;;;;1.71;50.67;102762.13;4991945;28;97355;-54
2023/04/04 04:12:55;;;;;;;1.60;1.27;;;;;;;1.70;50.87;102755.97;4994684;28;98048;-49
2023/04/04 04:15:21;;;;;;;1.90;0.90;;;;;;;1.71;51.18;102754.78;4994518;28;98108;-49
2023/04/04 04:17:46;;;;;;;0.70;0.70;;;;;;;1.71;50.94;102756.72;4996236;28;97573;-49
2023/04/04 04:20:11;;;;;;;0.90;0.90;;;;;;;1.69;50.66;102761.75;4996596;28;106510;-50
2023/04/04 04:22:37;;;;;;;6.53;1.13;;;;;;;1.67;50.78;102759.41;4996923;28;97304;-49
2023/04/04 04:25:03;;;;;;;1.20;0.97;;;;;;;1.66;50.95;102755.13;4998766;28;97341;-49
2023/04/04 04:27:29;;;;;;;1.53;0.87;;;;;;;1.64;51.04;102759.41;4998613;28;97031;-50
2023/04/04 04:29:55;;;;;;;1.13;0.93;;;;;;;1.61;50.91;102755.50;4996472;28;97455;-50
2023/04/04 04:32:20;;;;;;;2.43;0.97;;;;;;;1.52;51.14;102761.28;4997909;28;97064;-50
2023/04/04 04:34:46;;;;;;;1.10;1.00;;;;;;;1.51;51.13;102751.56;4998162;28;97049;-49
2023/04/04 04:37:11;;;;;;;3.73;1.17;;;;;;;1.50;50.98;102757.38;4996671;28;97193;-49
2023/04/04 04:39:37;;;;;;;0.83;0.83;;;;;;;1.47;51.35;102753.50;4997888;28;98444;-49
2023/04/04 04:42:02;;;;;;;2.40;1.10;;;;;;;1.50;51.35;102766.31;4996347;28;97236;-50
2023/04/04 04:44:27;;;;;;;4.07;1.20;;;;;;;1.51;51.11;102769.78;4995513;28;102282;-49
2023/04/04 04:46:53;;;;;;;3.97;1.00;;;;;;;1.53;51.14;102772.88;4995478;28;97768;-48
2023/04/04 04:49:18;;;;;;;0.83;0.80;;;;;;;1.50;51.07;102766.31;4993370;28;96913;-47
2023/04/04 04:51:43;;;;;;;0.80;0.80;;;;;;;1.45;51.09;102768.56;4994116;28;98154;-48
2023/04/04 04:54:10;;;;;;;2.67;0.97;;;;;;;1.38;51.31;102771.22;4995040;28;97140;-50
2023/04/04 04:56:35;;;;;;;1.37;1.03;;;;;;;1.36;51.24;102776.25;4997385;28;97179;-48
2023/04/04 04:59:01;;;;;;;0.90;0.90;;;;;;;1.32;51.55;102764.63;4995492;28;97026;-50
2023/04/04 05:01:26;;;;;;;1.50;1.20;;;;;;;1.28;51.58;102767.31;4997294;28;96750;-49
2023/04/04 05:03:52;;;;;;;1.20;1.10;;;;;;;1.25;51.82;102770.75;4997029;28;96734;-49
2023/04/04 05:06:17;;;;;;;2.40;1.20;;;;;;;1.25;51.75;102767.28;4994303;28;98809;-49
2023/04/04 05:08:42;;;;;;;1.83;1.03;;;;;;;1.27;51.58;102764.97;4994114;28;97344;-51
2023/04/04 05:11:07;;;;;;;1.03;1.00;;;;;;;1.28;51.80;102767.31;4992403;28;98144;-49
2023/04/04 05:13:33;;;;;;;1.43;0.90;;;;;;;1.29;51.82;102768.09;4994018;28;97790;-50
2023/04/04 05:15:59;;;;;;;3.90;0.77;;;;;;;1.34;51.96;102776.66;4996297;28;97208;-49
2023/04/04 05:18:26;;;;;;;2.80;1.03;;;;;;;1.37;51.80;102781.31;4996052;28;97462;-50
2023/04/04 05:20:54;;;;;;;0.97;0.97;;;;;;;1.42;51.83;102774.78;4995981;28;97232;-50
2023/04/04 05:23:21;;;;;;;1.07;0.97;;;;;;;1.43;51.53;102776.31;4995521;28;96753;-49
2023/04/04 05:25:50;;;;;;;0.90;0.90;;;;;;;1.48;51.84;102779.47;4995482;28;96637;-48
2023/04/04 05:28:16;;;;;;;2.90;1.27;;;;;;;1.51;51.51;102786.03;4993891;28;97700;-49
2023/04/04 05:30:41;;;;;;;1.43;0.80;;;;;;;1.51;51.69;102794.19;4996832;28;97559;-48
2023/04/04 05:33:06;;;;;;;0.80;0.73;;;;;;;1.52;51.91;102791.13;4995929;28;97123;-49
2023/04/04 05:35:32;;;;;;;1.07;0.97;;;;;;;1.56;51.84;102790.34;4999337;28;96974;-48
2023/04/04 05:37:57;;;;;;;1.03;0.60;;;;;;;1.60;51.76;102797.34;4997954;28;96966;-49
2023/04/04 05:40:23;;;;;;;1.20;1.10;;;;;;;1.63;51.56;102802.03;4996064;28;102014;-49
2023/04/04 05:42:58;;;;;;;1.30;0.90;;;;;;;1.68;51.92;102798.97;4994143;28;97499;-49
2023/04/04 05:45:24;;;;;;;1.80;1.07;;;;;;;1.70;51.88;102795.88;4994662;28;96996;-49
2023/04/04 05:47:50;;;;;;;1.57;1.17;;;;;;;1.72;51.62;102805.19;4993587;28;96993;-49
2023/04/04 05:50:15;;;;;;;0.80;0.80;;;;;;;1.74;51.97;102802.88;4995561;28;97208;-50
2023/04/04 05:52:41;;;;;;;0.90;0.90;;;;;;;1.81;52.00;102802.13;4992668;28;97106;-48
2023/04/04 05:55:07;;;;;;;1.37;1.30;;;;;;;1.86;51.92;102790.91;4994961;28;97488;-48
2023/04/04 05:57:32;;;;;;;1.17;1.07;;;;;;;1.89;51.93;102801.78;4992960;28;97477;-50
2023/04/04 05:59:58;;;;;;;2.00;1.10;;;;;;;1.90;51.83;102794.44;4996157;28;97140;-49
2023/04/04 06:02:23;;;;;;;2.00;0.90;;;;;;;1.93;51.70;102799.88;4994885;28;97076;-49
2023/04/04 06:04:49;;;;;;;2.20;1.10;;;;;;;1.97;51.90;102797.94;4997205;28;97279;-48
2023/04/04 06:07:15;;;;;;;1.13;1.03;;;;;;;1.99;51.82;102801.06;4991905;28;97827;-49
2023/04/04 06:09:40;;;;;;;1.00;0.90;;;;;;;1.99;51.68;102806.50;4994103;28;97222;-50
2023/04/04 06:12:06;;;;;;;0.80;0.80;;;;;;;1.99;51.89;102803.00;4994930;28;97137;-48
2023/04/04 06:14:31;;;;;;;3.93;1.00;;;;;;;2.01;52.02;102808.84;4994635;28;97081;-48
2023/04/04 06:16:57;;;;;;;1.10;0.80;;;;;;;2.02;51.62;102804.94;4995464;28;98017;-49
2023/04/04 06:19:22;;;;;;;0.90;0.90;;;;;;;2.02;52.00;102804.94;4994088;28;97915;-48
2023/04/04 06:21:47;;;;;;;1.00;0.90;;;;;;;2.03;52.20;102804.56;4993004;28;97387;-49
2023/04/04 06:24:13;;;;;;;3.40;1.27;;;;;;;2.06;52.27;102806.53;4993900;28;98426;-48
2023/04/04 06:26:38;;;;;;;0.97;0.77;;;;;;;2.07;52.22;102805.38;4991654;28;97120;-48
2023/04/04 06:29:03;;;;;;;4.10;1.63;;;;;;;2.11;52.09;102805.38;4992725;28;97303;-50
2023/04/04 06:31:29;;;;;;;2.90;1.47;;;;;;;2.15;52.15;102806.97;4993639;28;96982;-49
2023/04/04 06:33:55;;;;;;;1.10;1.00;;;;;;;2.19;52.36;102807.75;4995289;28;97279;-49
2023/04/04 06:36:20;;;;;;;1.17;0.90;;;;;;;2.26;52.28;102807.00;4996300;28;97493;-49
2023/04/04 06:38:45;;;;;;;1.47;1.20;;;;;;;2.31;52.02;102814.78;4994322;28;97332;-48
2023/04/04 06:41:11;;;;;;;1.27;1.17;;;;;;;2.35;52.09;102814.78;4994686;28;96850;-49
2023/04/04 06:43:36;;;;;;;1.53;1.03;;;;;;;2.41;52.22;102808.59;4995193;28;98579;-49
2023/04/04 06:46:02;;;;;;;1.37;0.80;;;;;;;2.45;52.18;102808.59;4993703;28;97316;-51
2023/04/04 06:48:27;;;;;;;1.80;1.30;;;;;;;2.47;52.33;102803.59;4993185;28;97205;-49
2023/04/04 06:50:52;;;;;;;2.33;1.33;;;;;;;2.56;52.50;102803.97;4997421;28;97689;-49
2023/04/04 06:53:18;;;;;;;2.20;1.50;;;;;;;2.62;52.36;102803.22;4995315;28;98006;-49
2023/04/04 06:55:43;;;;;;;5.80;1.87;;;;;;;2.68;52.48;102804.41;4992142;28;97109;-49
2023/04/04 06:58:08;;;;;;;1.63;1.53;;;;;;;2.74;52.37;102804.81;4995918;28;97197;-49
2023/04/04 07:00:34;;;;;;;3.17;1.60;;;;;;;2.78;52.39;102808.31;4994803;28;97224;-48
2023/04/04 07:03:00;;;;;;;2.20;1.20;;;;;;;2.83;52.40;102806.00;4993430;28;97122;-50
2023/04/04 07:05:26;;;;;;;1.17;1.07;;;;;;;2.84;52.68;102809.50;4992372;28;98046;-49
2023/04/04 07:07:55;;;;;;;2.53;1.23;;;;;;;3.01;52.58;102819.63;4992834;28;97349;-49
2023/04/04 07:10:22;;;;;;;0.90;0.87;;;;;;;3.08;52.41;102821.56;4992882;28;97502;-49
2023/04/04 07:12:47;;;;;;;2.53;1.00;;;;;;;3.16;52.29;102825.84;4993589;28;97046;-49
2023/04/04 07:15:12;;;;;;;1.40;1.30;;;;;;;3.23;52.56;102823.13;4993999;28;97236;-49
2023/04/04 07:17:39;;;;;;;1.40;1.13;;;;;;;3.36;52.72;102821.56;4993677;28;100530;-50
2023/04/04 07:20:06;;;;;;;2.97;1.17;;;;;;;3.46;52.55;102810.66;4992672;28;97501;-50
2023/04/04 07:22:31;;;;;;;1.20;0.83;;;;;;;3.58;52.63;102815.69;4991541;28;97228;-49
2023/04/04 07:24:56;;;;;;;1.33;0.93;;;;;;;3.67;52.53;102818.81;4992963;28;97411;-50
2023/04/04 07:27:22;;;;;;;1.60;0.87;;;;;;;3.83;52.51;102815.66;4993086;28;97191;-50
2023/04/04 07:29:47;;;;;;;1.20;1.10;;;;;;;4.01;52.42;102816.41;4990435;28;97241;-48
2023/04/04 07:32:12;;;;;;;1.57;1.07;;;;;;;4.12;52.09;102817.16;4993499;28;97170;-49
2023/04/04 07:34:38;;;;;;;1.17;1.07;;;;;;;4.24;52.49;102811.25;4992857;28;103958;-50
2023/04/04 07:37:03;;;;;;;1.30;1.20;;;;;;;4.37;52.40;102817.81;4996750;28;97544;-49
2023/04/04 07:39:28;;;;;;;2.67;1.00;;;;;;;4.46;52.25;102809.97;4991280;28;96993;-50
2023/04/04 07:41:54;;;;;;;1.97;1.03;;;;;;;4.55;52.06;102804.88;4992557;28;97366;-49
2023/04/04 07:44:19;;;;;;;1.00;0.70;;;;;;;4.65;52.22;102810.66;4994133;28;96999;-49
2023/04/04 07:46:45;;;;;;;1.43;1.00;;;;;;;4.76;52.14;102812.13;4993304;28;97076;-50
2023/04/04 07:49:11;;;;;;;3.30;1.00;;;;;;;4.85;52.07;102809.75;4994864;28;96691;-49
2023/04/04 07:51:38;;;;;;;2.20;1.00;;;;;;;4.97;51.99;102808.50;4992017;28;97368;-49
2023/04/04 07:54:04;;;;;;;1.20;1.10;;;;;;;5.06;52.04;102812.34;4994951;28;97147;-49
2023/04/04 07:56:29;;;;;;;2.93;0.90;;;;;;;5.16;51.84;102814.19;4989530;28;101795;-50
2023/04/04 07:58:55;;;;;;;2.83;0.83;;;;;;;5.22;51.89;102804.41;4995241;28;96666;-49
2023/04/04 08:01:20;;;;;;;1.20;0.93;;;;;;;5.34;51.84;102805.88;4990929;28;96938;-49
2023/04/04 08:03:46;;;;;;;1.33;1.10;;;;;;;5.42;51.38;102815.53;4994394;28;97232;-50
2023/04/04 08:06:12;;;;;;;2.43;0.90;;;;;;;5.49;51.26;102804.56;4994177;28;97110;-48
2023/04/04 08:08:37;;;;;;;1.20;0.70;;;;;;;5.55;51.04;102816.56;4991265;28;96739;-49
2023/04/04 08:11:03;;;;;;;1.33;0.70;;;;;;;5.57;50.75;102802.53;4995542;28;97412;-52
2023/04/04 08:13:28;;;;;;;1.43;0.60;;;;;;;5.69;51.53;102805.53;4991728;28;97522;-49
2023/04/04 08:15:53;;;;;;;0.60;0.47;;;;;;;5.79;50.97;102801.13;4989887;28;97780;-51
2023/04/04 08:18:19;;;;;;;2.50;0.63;;;;;;;5.90;50.78;102810.78;4994872;28;97193;-50
2023/04/04 08:20:45;;;;;;;1.77;0.73;;;;;;;6.05;50.95;102806.72;4995799;28;97525;-50
2023/04/04 08:23:11;;;;;;;1.80;0.73;;;;;;;6.14;50.29;102789.81;4990093;28;97355;-52
2023/04/04 08:25:38;;;;;;;1.67;0.80;;;;;;;6.27;50.60;102803.75;4996100;28;97173;-50
2023/04/04 08:28:04;;;;;;;2.43;0.60;;;;;;;6.42;50.51;102799.63;4995869;28;97196;-50
2023/04/04 08:30:29;;;;;;;1.80;0.80;;;;;;;6.57;50.35;102801.00;4991869;28;97627;-51
2023/04/04 08:32:55;;;;;;;1.60;0.80;;;;;;;6.72;49.96;102794.13;4995298;28;96954;-51
2023/04/04 08:35:20;;;;;;;0.60;0.50;;;;;;;6.87;50.01;102792.72;4996164;28;97027;-49
2023/04/04 08:37:46;;;;;;;0.90;0.60;;;;;;;6.98;49.76;102793.34;4996423;28;97001;-51
2023/04/04 08:40:12;;;;;;;1.33;0.60;;;;;;;7.28;49.68;102785.00;4998772;28;96874;-50
2023/04/04 08:42:40;;;;;;;1.13;0.60;;;;;;;7.52;49.02;102783.03;4995217;28;96980;-50
2023/04/04 08:45:08;;;;;;;0.70;0.60;;;;;;;7.63;48.57;102788.31;4995741;28;96684;-52
2023/04/04 08:47:35;;;;;;;1.37;0.70;;;;;;;7.97;49.12;102786.09;4996341;28;96910;-50
2023/04/04 08:50:04;;;;;;;1.60;0.80;;;;;;;8.12;47.86;102785.41;4997543;28;97213;-50
2023/04/04 08:52:31;;;;;;;6.00;0.77;;;;;;;8.39;48.01;102795.44;4995731;28;97135;-51
2023/04/04 08:54:57;;;;;;;1.70;0.60;;;;;;;8.31;46.48;102792.06;4998327;28;100798;-52
2023/04/04 08:57:23;;;;;;;1.97;0.80;;;;;;;8.36;47.33;102788.06;4995953;28;97396;-51
2023/04/04 08:59:48;;;;;;;2.40;1.07;;;;;;;8.55;47.11;102787.22;4998098;28;96841;-52
2023/04/04 09:02:15;;;;;;;1.20;0.60;;;;;;;8.65;46.39;102789.72;4996164;28;96818;-49
2023/04/04 09:04:43;;;;;;;1.20;0.70;;;;;;;8.90;46.66;102786.41;4993719;28;97283;-49
2023/04/04 09:07:09;;;;;;;1.97;0.63;;;;;;;9.15;46.51;102781.13;4997036;28;96987;-53
2023/04/04 09:09:36;;;;;;;4.87;0.90;;;;;;;9.29;45.84;102790.94;4997265;28;96857;-54
2023/04/04 09:12:03;;;;;;;1.03;0.77;;;;;;;9.27;45.81;102788.63;4996817;28;97387;-50
2023/04/04 09:14:29;;;;;;;0.83;0.70;;;;;;;9.14;44.89;102785.06;4995524;28;97252;-51
2023/04/04 09:16:55;;;;;;;0.70;0.70;;;;;;;9.00;45.51;102775.19;4995341;28;96765;-53
2023/04/04 09:19:21;;;;;;;1.20;1.00;;;;;;;8.72;44.67;102783.31;4997524;28;97237;-49
2023/04/04 09:21:47;;;;;;;3.87;0.80;;;;;;;8.50;45.32;102777.53;4996955;28;97086;-52
2023/04/04 09:24:14;;;;;;;0.50;0.43;;;;;;;8.52;46.00;102775.13;4996110;28;97157;-50
2023/04/04 09:26:47;;;;;;;0.60;0.60;;;;;;;8.80;45.34;102777.22;4995186;28;97557;-51
2023/04/04 09:29:13;;;;;;;0.70;0.57;;;;;;;9.13;45.39;102775.25;4996029;28;97242;-49
2023/04/04 09:31:38;;;;;;;1.50;0.77;;;;;;;9.25;45.15;102768.28;4996157;28;97794;-50
2023/04/04 09:34:04;;;;;;;5.40;0.93;;;;;;;9.35;43.95;102779.00;4996689;28;97506;-51
2023/04/04 09:36:30;;;;;;;2.50;0.90;;;;;;;9.37;44.67;102773.09;4995193;28;96948;-52
2023/04/04 09:38:56;;;;;;;1.27;0.53;;;;;;;9.65;45.19;102764.09;4998136;28;97353;-51
2023/04/04 09:41:21;;;;;;;0.73;0.67;;;;;;;9.97;44.59;102763.19;4993834;28;97399;-50
2023/04/04 09:43:48;;;;;;;0.90;0.77;;;;;;;9.80;43.26;102768.78;4995748;28;97212;-52
2023/04/04 09:46:14;;;;;;;0.97;0.87;;;;;;;9.75;43.36;102768.53;4995834;28;98159;-50
2023/04/04 09:48:47;;;;;;;2.20;0.57;;;;;;;9.66;43.56;102768.38;4996726;28;97220;-52
2023/04/04 09:51:12;;;;;;;2.20;0.70;;;;;;;9.82;43.13;102762.84;4994982;28;97588;-50
2023/04/04 09:53:38;;;;;;;1.73;1.00;;;;;;;9.67;42.78;102772.69;4995255;28;97721;-51
2023/04/04 09:56:05;;;;;;;1.50;1.00;;;;;;;9.52;43.60;102763.28;4994107;28;96856;-50
2023/04/04 09:58:34;;;;;;;1.60;0.80;;;;;;;9.40;44.04;102763.97;4996274;28;97114;-51
2023/04/04 10:01:01;;;;;;;1.27;0.70;;;;;;;9.37;43.56;102765.59;4994826;28;97344;-50
2023/04/04 10:03:29;;;;;;;0.97;0.80;;;;;;;9.36;43.92;102764.09;4993317;28;97427;-50
2023/04/04 10:06:09;;;;;;;0.60;0.60;;;;;;;9.55;42.69;102760.44;4995307;28;97803;-50
2023/04/04 10:08:38;;;;;;;0.90;0.50;;;;;;;9.59;43.67;102758.34;4995117;28;96724;-53
2023/04/04 10:11:04;;;;;;;0.60;0.60;;;;;;;9.49;43.78;102761.38;4996157;28;98612;-53
2023/04/04 10:13:31;;;;;;;1.17;0.80;;;;;;;9.32;43.69;102759.88;4994391;28;96943;-51
2023/04/04 10:15:58;;;;;;;0.97;0.80;;;;;;;9.04;43.03;102759.38;4996918;28;96836;-51
2023/04/04 10:18:26;;;;;;;1.00;0.60;;;;;;;8.96;43.91;102749.78;4994219;28;97010;-51
2023/04/04 10:20:53;;;;;;;0.70;0.53;;;;;;;9.22;44.46;102747.94;4993047;28;97660;-51
2023/04/04 10:23:22;;;;;;;0.70;0.50;;;;;;;9.53;44.48;102740.84;4992263;28;97503;-52
2023/04/04 10:25:48;;;;;;;0.60;0.60;;;;;;;9.69;43.69;102742.78;4993416;28;97114;-49
2023/04/04 10:28:13;;;;;;;0.60;0.50;;;;;;;9.83;43.70;102743.16;4995246;28;96920;-49
2023/04/04 10:30:43;;;;;;;3.70;0.80;;;;;;;9.95;43.29;102743.63;4996324;28;97734;-51
2023/04/04 10:33:14;;;;;;;1.87;0.80;;;;;;;10.00;43.47;102735.63;4994267;28;96968;-51
2023/04/04 10:35:44;;;;;;;0.70;0.50;;;;;;;10.03;43.27;102740.22;4995662;28;96771;-50
2023/04/04 10:38:11;;;;;;;2.03;0.80;;;;;;;9.98;41.77;102743.50;4993081;28;96936;-52
2023/04/04 10:40:38;;;;;;;0.73;0.60;;;;;;;9.99;42.74;102742.31;4994322;28;97206;-52
2023/04/04 10:43:06;;;;;;;1.07;0.63;;;;;;;10.16;42.22;102743.78;4993711;28;97668;-52
2023/04/04 10:45:33;;;;;;;0.60;0.60;;;;;;;10.35;43.21;102740.06;4995303;28;97312;-49
2023/04/04 10:47:59;;;;;;;0.97;0.63;;;;;;;10.35;40.67;102722.81;4993058;28;96859;-50
2023/04/04 10:50:25;;;;;;;1.67;0.70;;;;;;;10.28;41.76;102729.28;4992374;28;96994;-51
2023/04/04 10:52:51;;;;;;;0.80;0.60;;;;;;;10.41;40.76;102715.53;4993050;28;97774;-49
2023/04/04 10:55:18;;;;;;;0.50;0.50;;;;;;;10.52;41.54;102718.72;4993224;28;96826;-50
2023/04/04 10:57:51;;;;;;;2.17;0.70;;;;;;;10.78;40.72;102711.19;4994216;28;97019;-53
2023/04/04 11:00:18;;;;;;;0.70;0.50;;;;;;;11.12;41.58;102709.22;4992090;28;97415;-50
2023/04/04 11:03:02;;;;;;;0.80;0.77;;;;;;;11.33;35.97;102710.50;4993582;28;97696;-53
2023/04/04 11:05:45;;;;;;;0.77;0.63;;;;;;;11.44;39.60;102715.63;4992720;28;97264;-49
2023/04/04 11:08:15;;;;;;;3.90;0.70;;;;;;;11.47;39.75;102712.72;4994971;28;96905;-53
2023/04/04 11:10:43;;;;;;;1.47;0.77;;;;;;;11.78;39.95;102699.81;4995621;28;97205;-50
2023/04/04 11:13:23;;;;;;;0.80;0.50;;;;;;;12.11;37.30;102704.88;4990382;28;97992;-52
2023/04/04 11:16:06;;;;;;;0.50;0.40;;;;;;;11.87;32.53;102699.88;4994672;28;97024;-51
2023/04/04 11:18:31;;;;;;;0.70;0.60;;;;;;;11.67;38.31;102691.16;4993596;28;97253;-52
2023/04/04 11:21:05;;;;;;;0.50;0.50;;;;;;;11.84;38.01;102698.00;4993528;28;96803;-53
2023/04/04 11:23:48;;;;;;;0.60;0.40;;;;;;;11.99;36.50;102685.22;4996692;28;97217;-52
2023/04/04 11:26:26;;;;;;;2.83;0.70;;;;;;;12.00;36.82;102684.00;4995651;28;96953;-49
2023/04/04 11:28:55;;;;;;;0.90;0.80;;;;;;;12.01;38.07;102680.00;4995997;28;96898;-52